createdAt,value
2022-08-16T00:03:24.203Z,5.40
2022-08-16T00:08:37.182Z,5.70
2022-08-16T00:13:42.499Z,4.30
2022-08-16T00:18:45.911Z,5.00
2022-08-16T00:23:50.239Z,6.00
2022-08-16T00:28:55.372Z,4.50
2022-08-16T00:33:58.143Z,5.03
2022-08-16T00:39:01.399Z,4.57
2022-08-16T00:44:11.124Z,5.97
2022-08-16T00:49:17.776Z,5.63
2022-08-16T00:54:24.263Z,5.15
2022-08-16T00:59:33.014Z,5.28
2022-08-16T01:04:38.380Z,5.13
2022-08-16T01:09:42.966Z,5.00
2022-08-16T01:14:53.239Z,4.80
2022-08-16T01:20:00.181Z,4.70
2022-08-16T01:25:09.146Z,5.20
2022-08-16T01:30:20.205Z,5.15
2022-08-16T01:35:35.135Z,6.00
2022-08-16T01:40:39.642Z,5.43
2022-08-16T01:45:43.497Z,5.13
2022-08-16T01:51:08.447Z,5.20
2022-08-16T01:56:24.362Z,5.65
2022-08-16T02:01:31.973Z,5.20
2022-08-16T02:06:38.572Z,5.30
2022-08-16T02:11:48.323Z,5.32
2022-08-16T02:16:58.392Z,6.47
2022-08-16T02:22:08.460Z,6.00
2022-08-16T02:27:27.995Z,5.85
2022-08-16T02:33:02.565Z,5.40
2022-08-16T02:38:01.751Z,5.15
2022-08-16T02:43:13.885Z,4.85
2022-08-16T02:48:29.668Z,5.32
2022-08-16T02:53:35.883Z,6.07
2022-08-16T02:58:41.514Z,5.85
2022-08-16T03:04:41.394Z,5.95
2022-08-16T03:09:13.782Z,7.10
2022-08-16T03:14:24.795Z,6.38
2022-08-16T03:19:47.902Z,5.70
2022-08-16T03:24:58.624Z,5.85
2022-08-16T03:30:16.260Z,6.25
2022-08-16T03:35:33.008Z,5.63
2022-08-16T03:40:41.290Z,5.35
2022-08-16T03:45:47.417Z,5.70
2022-08-16T03:50:59.550Z,5.07
2022-08-16T03:56:03.710Z,5.68
2022-08-16T04:01:08.050Z,6.18
2022-08-16T04:06:10.963Z,6.10
2022-08-16T04:11:16.271Z,6.90
2022-08-16T04:16:26.632Z,5.65
2022-08-16T04:21:34.583Z,6.00
2022-08-16T04:26:37.661Z,5.55
2022-08-16T04:31:56.530Z,5.53
2022-08-16T04:37:05.236Z,6.43
2022-08-16T04:42:12.757Z,6.18
2022-08-16T04:47:21.707Z,6.25
2022-08-16T04:52:34.978Z,5.68
2022-08-16T04:57:39.506Z,6.28
2022-08-16T05:08:00.380Z,6.82
2022-08-16T05:13:07.644Z,6.87
2022-08-16T05:18:27.388Z,6.78
2022-08-16T05:23:32.638Z,7.40
2022-08-16T05:28:38.764Z,6.68
2022-08-16T05:33:44.923Z,6.45
2022-08-16T05:38:58.188Z,7.75
2022-08-16T05:44:05.593Z,6.90
2022-08-16T05:49:38.243Z,6.90
2022-08-16T05:59:59.404Z,6.45
2022-08-16T06:05:06.814Z,13.73
2022-08-16T06:10:14.666Z,6.10
2022-08-16T06:15:35.347Z,5.72
2022-08-16T06:20:55.222Z,7.25
2022-08-16T06:25:59.986Z,6.22
2022-08-16T06:31:12.305Z,6.55
2022-08-16T06:36:21.767Z,5.90
2022-08-16T06:41:44.989Z,6.80
2022-08-16T06:47:06.876Z,6.28
2022-08-16T06:52:57.613Z,5.60
2022-08-16T06:57:39.826Z,5.65
2022-08-16T07:02:51.247Z,6.60
2022-08-16T07:07:56.758Z,5.97
2022-08-16T07:18:15.207Z,5.50
2022-08-16T07:23:38.956Z,6.68
2022-08-16T07:28:44.038Z,19.50
2022-08-16T07:33:52.173Z,5.78
2022-08-16T07:39:00.267Z,6.22
2022-08-16T07:44:16.112Z,5.25
2022-08-16T07:49:20.495Z,5.25
2022-08-16T07:54:32.337Z,5.20
2022-08-16T07:59:46.467Z,5.75
2022-08-16T08:04:51.790Z,5.72
2022-08-16T08:09:56.793Z,5.15
2022-08-16T08:15:00.063Z,4.60
2022-08-16T08:20:04.290Z,4.45
2022-08-16T08:25:09.723Z,4.78
2022-08-16T08:30:52.094Z,4.57
2022-08-16T08:35:41.057Z,4.20
2022-08-16T08:40:48.022Z,4.50
2022-08-16T08:45:53.442Z,3.33
2022-08-16T08:50:58.470Z,3.53
2022-08-16T08:56:23.511Z,3.03
2022-08-16T09:01:36.751Z,2.75
2022-08-16T09:06:46.673Z,2.97
2022-08-16T09:12:03.940Z,2.95
2022-08-16T09:17:31.620Z,2.47
2022-08-16T09:22:36.131Z,2.55
2022-08-16T09:27:56.989Z,2.67
2022-08-16T09:33:02.710Z,2.60
2022-08-16T09:38:08.382Z,2.83
2022-08-16T09:43:46.511Z,2.20
2022-08-16T09:48:44.652Z,2.40
2022-08-16T09:53:55.405Z,2.65
2022-08-16T09:59:03.646Z,2.50
2022-08-16T10:04:29.788Z,2.30
2022-08-16T10:09:44.916Z,2.17
2022-08-16T10:14:56.772Z,2.40
2022-08-16T10:20:00.215Z,2.60
2022-08-16T10:25:03.006Z,1.95
2022-08-16T10:30:25.858Z,2.58
2022-08-16T10:35:32.896Z,2.03
2022-08-16T10:40:36.095Z,2.58
2022-08-16T10:45:42.190Z,1.92
2022-08-16T10:51:00.364Z,2.28
2022-08-16T10:56:06.380Z,1.58
2022-08-16T11:01:39.861Z,2.25
2022-08-16T11:07:06.512Z,2.03
2022-08-16T11:12:13.713Z,2.08
2022-08-16T11:17:19.207Z,2.20
2022-08-16T11:22:42.276Z,2.65
2022-08-16T11:27:46.014Z,2.50
2022-08-16T11:32:51.534Z,3.00
2022-08-16T11:38:47.213Z,1.92
2022-08-16T11:43:23.428Z,2.00
2022-08-16T11:48:33.285Z,2.00
2022-08-16T11:53:36.897Z,1.85
2022-08-16T11:58:40.097Z,1.70
2022-08-16T12:03:45.862Z,1.88
2022-08-16T12:08:49.264Z,2.67
2022-08-16T12:13:53.208Z,2.17
2022-08-16T12:18:58.052Z,2.20
2022-08-16T12:24:01.049Z,1.40
2022-08-16T12:29:06.275Z,2.00
2022-08-16T12:34:11.098Z,1.58
2022-08-16T12:39:23.465Z,1.58
2022-08-16T12:44:32.511Z,1.67
2022-08-16T12:49:42.167Z,2.13
2022-08-16T12:54:45.097Z,1.80
2022-08-16T12:59:57.867Z,1.83
2022-08-16T13:05:02.988Z,1.87
2022-08-16T13:15:33.008Z,1.90
2022-08-16T13:20:56.436Z,1.75
2022-08-16T13:25:59.936Z,1.77
2022-08-16T13:31:03.376Z,1.63
2022-08-16T13:36:17.155Z,1.50
2022-08-16T13:41:33.182Z,1.65
2022-08-16T13:46:36.750Z,1.87
2022-08-16T13:51:41.783Z,1.83
2022-08-16T13:56:45.234Z,1.45
2022-08-16T14:01:55.511Z,1.90
2022-08-16T14:07:02.694Z,1.73
2022-08-16T14:12:09.804Z,1.88
2022-08-16T14:17:21.599Z,1.60
2022-08-16T14:22:30.477Z,1.63
2022-08-16T14:27:35.820Z,1.65
2022-08-16T14:32:42.050Z,1.55
2022-08-16T14:37:52.715Z,1.95
2022-08-16T14:43:05.627Z,1.38
2022-08-16T14:48:10.222Z,1.92
2022-08-16T14:53:14.816Z,1.80
2022-08-16T14:58:34.498Z,2.05
2022-08-16T15:03:42.360Z,1.13
2022-08-16T15:08:49.277Z,1.88
2022-08-16T15:13:54.907Z,1.40
2022-08-16T15:24:05.658Z,2.30
2022-08-16T15:29:08.440Z,2.50
2022-08-16T15:34:21.896Z,1.48
2022-08-16T15:39:39.401Z,1.58
2022-08-16T15:44:53.020Z,1.80
2022-08-16T15:49:57.774Z,1.55
2022-08-16T15:55:07.366Z,1.80
2022-08-16T16:00:17.568Z,1.70
2022-08-16T16:05:21.851Z,1.75
2022-08-16T16:15:39.883Z,1.83
2022-08-16T16:20:52.039Z,1.75
2022-08-16T16:25:57.021Z,1.50
2022-08-16T16:31:01.059Z,1.95
2022-08-16T16:36:06.873Z,2.08
2022-08-16T16:41:11.846Z,1.83
2022-08-16T16:46:32.796Z,1.95
2022-08-16T16:51:44.464Z,1.63
2022-08-16T16:56:49.795Z,1.55
2022-08-16T17:07:16.801Z,1.75
2022-08-16T17:12:46.368Z,2.05
2022-08-16T17:18:00.270Z,1.95
2022-08-16T17:23:04.875Z,2.47
2022-08-16T17:28:59.434Z,1.95
2022-08-16T17:33:37.012Z,1.88
2022-08-16T17:38:55.766Z,2.00
2022-08-16T17:44:00.992Z,2.30
2022-08-16T17:49:04.180Z,2.05
2022-08-16T17:54:07.075Z,1.90
2022-08-16T17:59:11.199Z,1.80
2022-08-16T18:04:14.030Z,2.00
2022-08-16T18:09:36.720Z,2.33
2022-08-16T18:14:51.985Z,2.55
2022-08-16T18:19:55.959Z,2.10
2022-08-16T18:24:59.726Z,2.55
2022-08-16T18:30:03.880Z,2.83
2022-08-16T18:35:07.678Z,2.75
2022-08-16T18:40:12.857Z,3.28
2022-08-16T18:45:17.005Z,5.45
2022-08-16T18:50:21.567Z,3.72
2022-08-16T18:55:27.140Z,3.85
2022-08-16T19:00:45.796Z,3.20
2022-08-16T19:06:03.994Z,3.15
2022-08-16T19:16:13.702Z,2.90
2022-08-16T19:21:16.731Z,2.78
2022-08-16T19:26:26.066Z,3.53
2022-08-16T19:31:34.248Z,4.68
2022-08-16T19:36:39.595Z,3.20
2022-08-16T19:41:46.198Z,3.25
2022-08-16T19:46:57.952Z,3.63
2022-08-16T19:52:10.782Z,3.50
2022-08-16T19:57:16.755Z,2.97
2022-08-16T20:02:40.566Z,3.25
2022-08-16T20:07:43.596Z,2.67
2022-08-16T20:12:52.942Z,2.88
2022-08-16T20:18:22.752Z,2.40
2022-08-16T20:23:27.957Z,3.03
2022-08-16T20:28:49.987Z,2.85
2022-08-16T20:33:54.726Z,2.78
2022-08-16T20:38:59.490Z,2.78
2022-08-16T20:44:02.606Z,2.60
2022-08-16T20:49:08.809Z,2.83
2022-08-16T20:54:12.117Z,3.15
2022-08-16T20:59:18.502Z,3.63
2022-08-16T21:04:25.211Z,2.80
2022-08-16T21:09:31.416Z,3.63
2022-08-16T21:14:34.803Z,4.15
2022-08-16T21:19:39.229Z,3.25
2022-08-16T21:24:42.821Z,3.08
2022-08-16T21:29:49.022Z,3.13
2022-08-16T21:34:53.296Z,4.10
2022-08-16T21:39:56.092Z,3.28
2022-08-16T21:44:58.902Z,4.28
2022-08-16T21:50:02.991Z,3.53
2022-08-16T21:55:07.729Z,3.15
2022-08-16T22:00:14.811Z,3.40
2022-08-16T22:05:20.037Z,3.30
2022-08-16T22:11:07.732Z,4.18
2022-08-16T22:15:48.345Z,3.33
2022-08-16T22:20:52.427Z,4.85
2022-08-16T22:25:56.306Z,3.15
2022-08-16T22:30:59.016Z,3.83
2022-08-16T22:36:04.693Z,4.00
2022-08-16T22:41:07.458Z,3.92
2022-08-16T22:46:10.272Z,3.53
2022-08-16T22:51:14.362Z,3.67
2022-08-16T22:56:17.982Z,3.75
2022-08-16T23:01:22.828Z,3.63
2022-08-16T23:06:26.974Z,3.58
2022-08-16T23:11:29.748Z,3.63
2022-08-16T23:16:35.087Z,4.53
2022-08-16T23:21:42.580Z,4.15
2022-08-16T23:26:49.068Z,4.03
2022-08-16T23:31:53.505Z,4.00
2022-08-16T23:36:57.916Z,4.53
2022-08-16T23:42:00.727Z,4.57
2022-08-16T23:47:03.476Z,4.63
2022-08-16T23:52:10.077Z,4.43
2022-08-16T23:57:12.805Z,4.50
